createdAt,value
2018-04-27T00:00:03.979Z,7.13
2018-04-27T00:02:32.257Z,6.10
2018-04-27T00:05:00.529Z,7.37
2018-04-27T00:07:28.773Z,6.70
2018-04-27T00:09:57.023Z,5.97
2018-04-27T00:12:26.051Z,6.03
2018-04-27T00:14:54.312Z,6.00
2018-04-27T00:17:22.560Z,6.40
2018-04-27T00:19:50.939Z,6.20
2018-04-27T00:22:19.171Z,6.00
2018-04-27T00:24:47.420Z,7.17
2018-04-27T00:27:16.438Z,6.40
2018-04-27T00:29:44.703Z,5.40
2018-04-27T00:32:12.965Z,7.00
2018-04-27T00:34:41.972Z,7.57
2018-04-27T00:37:10.212Z,6.37
2018-04-27T00:39:38.467Z,5.80
2018-04-27T00:42:06.740Z,5.90
2018-04-27T00:44:34.964Z,7.03
2018-04-27T00:47:03.970Z,5.73
2018-04-27T00:49:32.242Z,7.20
2018-04-27T00:52:01.255Z,6.53
2018-04-27T00:54:29.523Z,6.60
2018-04-27T00:56:57.758Z,6.40
2018-04-27T00:59:26.012Z,5.60
2018-04-27T01:01:54.224Z,5.70
2018-04-27T01:04:22.476Z,5.13
2018-04-27T01:06:50.729Z,5.40
2018-04-27T01:09:18.995Z,5.70
2018-04-27T01:11:47.257Z,4.73
2018-04-27T01:14:16.313Z,4.70
2018-04-27T01:16:45.390Z,5.30
2018-04-27T01:19:13.638Z,4.70
2018-04-27T01:21:41.908Z,5.07
2018-04-27T01:24:10.947Z,6.00
2018-04-27T01:26:39.197Z,5.37
2018-04-27T01:29:07.440Z,5.80
2018-04-27T01:31:36.492Z,5.53
2018-04-27T01:34:04.704Z,4.73
2018-04-27T01:36:32.935Z,6.83
2018-04-27T01:39:01.185Z,5.70
2018-04-27T01:41:29.424Z,5.70
2018-04-27T01:43:57.660Z,6.33
2018-04-27T01:46:25.933Z,6.00
2018-04-27T01:48:54.155Z,6.57
2018-04-27T01:51:22.412Z,5.90
2018-04-27T01:53:50.661Z,6.73
2018-04-27T01:56:18.959Z,7.27
2018-04-27T01:58:47.219Z,7.70
2018-04-27T02:01:15.463Z,6.93
2018-04-27T02:03:44.481Z,7.53
2018-04-27T02:06:12.728Z,7.27
2018-04-27T02:08:41.751Z,6.80
2018-04-27T02:11:10.600Z,8.70
2018-04-27T02:13:38.876Z,8.60
2018-04-27T02:16:07.146Z,7.17
2018-04-27T02:18:35.442Z,7.80
2018-04-27T02:21:03.692Z,7.30
2018-04-27T02:23:31.966Z,9.13
2018-04-27T02:26:00.222Z,8.20
2018-04-27T02:28:28.468Z,8.53
2018-04-27T02:30:57.289Z,7.60
2018-04-27T02:33:25.618Z,7.53
2018-04-27T02:35:53.860Z,7.23
2018-04-27T02:38:22.093Z,6.57
2018-04-27T02:40:50.381Z,7.53
2018-04-27T02:43:20.149Z,7.73
2018-04-27T02:45:48.418Z,7.30
2018-04-27T02:48:16.649Z,6.53
2018-04-27T02:50:44.897Z,7.17
2018-04-27T02:53:13.899Z,6.90
2018-04-27T02:55:42.957Z,6.83
2018-04-27T02:58:11.170Z,6.70
2018-04-27T03:00:40.191Z,7.50
2018-04-27T03:03:08.433Z,7.90
2018-04-27T03:05:37.484Z,7.40
2018-04-27T03:08:05.713Z,8.67
2018-04-27T03:10:34.737Z,7.63
2018-04-27T03:13:03.746Z,7.73
2018-04-27T03:15:31.989Z,7.93
2018-04-27T03:18:00.987Z,6.80
2018-04-27T03:20:29.279Z,6.90
2018-04-27T03:22:57.519Z,6.83
2018-04-27T03:25:25.780Z,8.13
2018-04-27T03:27:54.023Z,6.23
2018-04-27T03:30:22.274Z,7.93
2018-04-27T03:32:51.271Z,7.50
2018-04-27T03:35:19.505Z,7.60
2018-04-27T03:37:47.780Z,8.53
2018-04-27T03:40:15.997Z,7.33
2018-04-27T03:42:44.254Z,7.80
2018-04-27T03:45:13.257Z,8.43
2018-04-27T03:47:42.265Z,8.37
2018-04-27T03:50:11.329Z,7.20
2018-04-27T03:52:39.579Z,8.60
2018-04-27T03:55:07.849Z,8.03
2018-04-27T03:57:36.103Z,8.90
2018-04-27T04:00:16.366Z,7.07
2018-04-27T04:02:56.613Z,6.60
2018-04-27T04:05:32.005Z,7.50
2018-04-27T04:08:00.277Z,8.00
2018-04-27T04:10:28.503Z,7.33
2018-04-27T04:12:56.780Z,7.73
2018-04-27T04:15:25.799Z,7.53
2018-04-27T04:17:54.093Z,7.77
2018-04-27T04:20:22.343Z,8.50
2018-04-27T04:22:51.376Z,6.50
2018-04-27T04:25:19.603Z,6.73
2018-04-27T04:27:47.891Z,7.23
2018-04-27T04:30:16.132Z,8.77
2018-04-27T04:32:44.509Z,6.77
2018-04-27T04:35:12.749Z,8.33
2018-04-27T04:37:41.037Z,7.20
2018-04-27T04:40:09.274Z,8.03
2018-04-27T04:42:37.527Z,6.93
2018-04-27T04:45:06.611Z,6.77
2018-04-27T04:47:34.824Z,9.43
2018-04-27T04:50:03.103Z,6.40
2018-04-27T04:52:31.473Z,6.03
2018-04-27T04:54:59.679Z,6.73
2018-04-27T04:57:27.951Z,7.00
2018-04-27T04:59:56.196Z,6.77
2018-04-27T05:02:24.472Z,6.50
2018-04-27T05:04:52.711Z,6.80
2018-04-27T05:07:20.998Z,6.60
2018-04-27T05:09:49.233Z,6.83
2018-04-27T05:12:17.553Z,8.20
2018-04-27T05:14:45.816Z,6.80
2018-04-27T05:17:14.072Z,6.67
2018-04-27T05:19:42.313Z,7.20
2018-04-27T05:22:11.345Z,6.30
2018-04-27T05:24:39.620Z,7.73
2018-04-27T05:27:07.869Z,7.30
2018-04-27T05:29:36.882Z,7.70
2018-04-27T05:32:05.175Z,5.73
2018-04-27T05:34:33.484Z,6.80
2018-04-27T05:37:01.766Z,7.63
2018-04-27T05:39:30.000Z,5.53
2018-04-27T05:41:58.287Z,5.40
2018-04-27T05:44:26.634Z,5.70
2018-04-27T05:46:54.888Z,6.10
2018-04-27T05:49:23.959Z,6.30
2018-04-27T05:51:53.071Z,10.40
2018-04-27T05:54:21.350Z,6.73
2018-04-27T05:56:49.605Z,5.17
2018-04-27T05:59:17.886Z,5.67
2018-04-27T06:01:46.117Z,6.73
2018-04-27T06:04:15.000Z,5.60
2018-04-27T06:06:44.022Z,6.80
2018-04-27T06:09:13.039Z,10.50
2018-04-27T06:11:41.290Z,6.23
2018-04-27T06:14:09.626Z,6.07
2018-04-27T06:16:37.857Z,7.10
2018-04-27T06:19:06.165Z,7.37
2018-04-27T06:21:34.393Z,6.57
2018-04-27T06:24:02.675Z,6.10
2018-04-27T06:26:30.917Z,5.20
2018-04-27T06:28:59.970Z,4.90
2018-04-27T06:31:28.197Z,5.50
2018-04-27T06:33:57.207Z,5.60
2018-04-27T06:36:25.490Z,5.90
2018-04-27T06:38:53.736Z,6.60
2018-04-27T06:41:21.983Z,4.70
2018-04-27T06:43:50.233Z,5.33
2018-04-27T06:46:18.500Z,8.30
2018-04-27T06:48:46.810Z,5.47
2018-04-27T06:51:15.067Z,4.60
2018-04-27T06:53:43.343Z,4.90
2018-04-27T06:56:11.591Z,5.03
2018-04-27T06:58:40.620Z,4.80
2018-04-27T07:01:08.875Z,4.50
2018-04-27T07:03:37.383Z,5.13
2018-04-27T07:06:05.671Z,4.27
2018-04-27T07:08:33.941Z,4.43
2018-04-27T07:11:02.291Z,3.87
2018-04-27T07:13:31.353Z,4.93
2018-04-27T07:16:00.415Z,3.70
2018-04-27T07:18:28.698Z,3.70
2018-04-27T07:20:56.953Z,3.17
2018-04-27T07:23:25.208Z,3.80
2018-04-27T07:25:54.311Z,3.20
2018-04-27T07:28:23.310Z,3.60
2018-04-27T07:30:51.616Z,3.10
2018-04-27T07:33:19.895Z,3.90
2018-04-27T07:35:48.137Z,3.67
2018-04-27T07:38:16.388Z,4.13
2018-04-27T07:40:44.651Z,2.87
2018-04-27T07:43:13.816Z,3.10
2018-04-27T07:45:42.075Z,3.20
2018-04-27T07:48:10.322Z,5.73
2018-04-27T07:50:39.385Z,5.50
2018-04-27T07:53:07.706Z,2.10
2018-04-27T07:55:35.943Z,3.70
2018-04-27T07:58:05.012Z,1.90
2018-04-27T08:00:33.318Z,2.03
2018-04-27T08:03:01.569Z,2.20
2018-04-27T08:05:29.845Z,2.10
2018-04-27T08:07:58.115Z,1.80
2018-04-27T08:10:27.220Z,9.47
2018-04-27T08:12:55.465Z,1.70
2018-04-27T08:15:23.775Z,2.30
2018-04-27T08:17:52.041Z,2.47
2018-04-27T08:20:29.968Z,2.37
2018-04-27T08:23:00.026Z,2.10
2018-04-27T08:25:32.972Z,3.00
2018-04-27T08:28:01.262Z,1.93
2018-04-27T08:30:29.580Z,2.37
2018-04-27T08:32:57.868Z,2.77
2018-04-27T08:35:26.920Z,1.80
2018-04-27T08:37:55.175Z,1.43
2018-04-27T08:40:23.431Z,1.93
2018-04-27T08:42:52.240Z,1.90
2018-04-27T08:45:20.488Z,2.10
2018-04-27T08:47:49.505Z,2.07
2018-04-27T08:50:17.948Z,1.80
2018-04-27T08:52:46.885Z,2.70
2018-04-27T08:55:15.197Z,2.13
2018-04-27T08:57:43.439Z,2.03
2018-04-27T09:00:11.726Z,1.87
2018-04-27T09:02:40.149Z,1.80
2018-04-27T09:05:09.110Z,1.80
2018-04-27T09:07:37.356Z,1.57
2018-04-27T09:10:05.603Z,2.93
2018-04-27T09:12:33.931Z,2.83
2018-04-27T09:15:02.220Z,3.17
2018-04-27T09:17:30.509Z,2.83
2018-04-27T09:19:58.778Z,3.30
2018-04-27T09:22:27.089Z,2.53
2018-04-27T09:24:56.288Z,1.70
2018-04-27T09:27:25.325Z,2.43
2018-04-27T09:29:53.587Z,2.70
2018-04-27T09:32:22.655Z,2.30
2018-04-27T09:34:50.849Z,3.20
2018-04-27T09:37:19.873Z,3.10
2018-04-27T09:39:48.122Z,2.47
2018-04-27T09:42:17.175Z,2.00
2018-04-27T09:44:45.635Z,2.60
2018-04-27T09:47:13.921Z,1.80
2018-04-27T09:49:42.199Z,1.90
2018-04-27T09:52:10.512Z,1.80
2018-04-27T09:54:38.728Z,2.53
2018-04-27T09:57:07.025Z,2.77
2018-04-27T09:59:35.279Z,1.90
2018-04-27T10:02:03.556Z,2.30
2018-04-27T10:04:31.824Z,1.60
2018-04-27T10:07:00.929Z,2.23
2018-04-27T10:09:29.241Z,2.20
2018-04-27T10:11:57.550Z,1.93
2018-04-27T10:14:26.244Z,1.63
2018-04-27T10:16:54.499Z,2.10
2018-04-27T10:19:22.757Z,2.43
2018-04-27T10:21:51.047Z,2.23
2018-04-27T10:24:20.811Z,3.60
2018-04-27T10:26:50.306Z,2.40
2018-04-27T10:29:18.433Z,2.30
2018-04-27T10:31:47.360Z,2.57
2018-04-27T10:34:15.589Z,1.80
2018-04-27T10:36:43.920Z,8.30
2018-04-27T10:39:12.929Z,7.53
2018-04-27T10:41:41.960Z,2.90
2018-04-27T10:44:10.549Z,1.60
2018-04-27T10:46:38.832Z,1.83
2018-04-27T10:49:07.108Z,2.73
2018-04-27T10:51:35.463Z,2.10
2018-04-27T10:54:04.500Z,1.93
2018-04-27T10:56:32.746Z,2.43
2018-04-27T10:59:01.799Z,1.97
2018-04-27T11:01:31.491Z,2.97
2018-04-27T11:04:00.410Z,2.33
2018-04-27T11:06:28.747Z,2.63
2018-04-27T11:08:57.056Z,2.23
2018-04-27T11:11:26.732Z,2.33
2018-04-27T11:13:55.885Z,2.57
2018-04-27T11:16:24.166Z,2.20
2018-04-27T11:18:53.209Z,2.00
2018-04-27T11:21:22.268Z,3.00
2018-04-27T11:23:50.608Z,2.40
2018-04-27T11:26:19.683Z,1.90
2018-04-27T11:28:49.543Z,2.80
2018-04-27T11:31:18.578Z,2.00
2018-04-27T11:34:00.131Z,1.80
2018-04-27T11:36:29.757Z,3.20
2018-04-27T11:38:58.124Z,2.63
2018-04-27T11:41:27.145Z,2.53
2018-04-27T11:43:56.476Z,1.93
2018-04-27T11:46:24.842Z,1.60
2018-04-27T11:48:53.131Z,2.27
2018-04-27T11:51:21.811Z,2.47
2018-04-27T11:53:51.973Z,2.23
2018-04-27T11:56:21.012Z,2.27
2018-04-27T11:58:49.681Z,3.30
2018-04-27T12:01:17.970Z,3.00
2018-04-27T12:03:46.356Z,6.20
2018-04-27T12:06:14.624Z,2.27
2018-04-27T12:08:42.912Z,2.27
2018-04-27T12:11:11.234Z,2.97
2018-04-27T12:13:39.481Z,2.00
2018-04-27T12:16:07.811Z,3.30
2018-04-27T12:18:36.117Z,2.13
2018-04-27T12:21:04.388Z,2.30
2018-04-27T12:23:32.807Z,2.47
2018-04-27T12:26:02.247Z,2.43
2018-04-27T12:28:30.593Z,2.90
2018-04-27T12:30:59.069Z,2.63
2018-04-27T12:33:27.349Z,2.17
2018-04-27T12:35:55.745Z,2.80
2018-04-27T12:38:24.000Z,3.03
2018-04-27T12:40:52.271Z,2.07
2018-04-27T12:43:20.551Z,3.17
2018-04-27T12:45:48.841Z,1.90
2018-04-27T12:48:17.144Z,2.00
2018-04-27T12:50:45.440Z,2.27
2018-04-27T12:53:13.746Z,1.63
2018-04-27T12:55:42.020Z,3.60
2018-04-27T12:58:12.327Z,1.73
2018-04-27T13:00:40.660Z,1.80
2018-04-27T13:03:09.752Z,2.30
2018-04-27T13:05:38.042Z,2.57
2018-04-27T13:08:06.653Z,1.97
2018-04-27T13:10:34.944Z,2.20
2018-04-27T13:13:03.916Z,1.90
2018-04-27T13:15:33.827Z,3.50
2018-04-27T13:18:04.616Z,3.20
2018-04-27T13:20:32.906Z,1.93
2018-04-27T13:23:01.264Z,2.37
2018-04-27T13:25:29.542Z,2.50
2018-04-27T13:27:57.799Z,2.40
2018-04-27T13:30:26.873Z,2.67
2018-04-27T13:32:57.311Z,2.10
2018-04-27T13:35:25.596Z,2.10
2018-04-27T13:37:55.458Z,1.83
2018-04-27T13:40:24.594Z,4.50
2018-04-27T13:42:54.545Z,2.60
2018-04-27T13:45:22.896Z,2.00
2018-04-27T13:47:52.132Z,2.83
2018-04-27T13:50:20.432Z,2.57
2018-04-27T13:52:49.451Z,2.67
2018-04-27T13:55:17.924Z,2.87
2018-04-27T13:57:46.212Z,2.63
2018-04-27T14:00:15.239Z,2.07
2018-04-27T14:02:44.734Z,3.33
2018-04-27T14:05:13.044Z,3.10
2018-04-27T14:07:42.063Z,3.83
2018-04-27T14:10:10.404Z,1.70
2018-04-27T14:12:39.086Z,2.10
2018-04-27T14:15:10.073Z,2.10
2018-04-27T14:17:39.614Z,4.07
2018-04-27T14:20:08.672Z,2.50
2018-04-27T14:22:36.987Z,1.90
2018-04-27T14:25:05.256Z,2.63
2018-04-27T14:27:33.548Z,2.10
2018-04-27T14:30:02.591Z,2.90
2018-04-27T14:32:30.831Z,2.20
2018-04-27T14:35:00.861Z,2.30
2018-04-27T14:37:29.980Z,2.27
2018-04-27T14:39:58.625Z,2.20
2018-04-27T14:42:26.891Z,2.67
2018-04-27T14:44:55.370Z,2.80
2018-04-27T14:47:23.622Z,2.40
2018-04-27T14:49:51.904Z,3.40
2018-04-27T14:52:20.222Z,2.40
2018-04-27T14:54:49.303Z,2.20
2018-04-27T14:57:17.717Z,3.90
2018-04-27T14:59:46.019Z,2.50
2018-04-27T15:02:14.285Z,3.03
2018-04-27T15:04:42.605Z,2.50
2018-04-27T15:07:10.921Z,3.13
2018-04-27T15:09:39.984Z,3.10
2018-04-27T15:12:08.318Z,3.50
2018-04-27T15:14:38.304Z,2.40
2018-04-27T15:17:08.206Z,2.50
2018-04-27T15:19:36.480Z,3.10
2018-04-27T15:22:04.966Z,2.90
2018-04-27T15:24:33.873Z,2.60
2018-04-27T15:27:03.221Z,2.87
2018-04-27T15:29:31.528Z,2.60
2018-04-27T15:32:00.575Z,4.43
2018-04-27T15:34:28.949Z,3.00
2018-04-27T15:36:57.283Z,2.60
2018-04-27T15:39:25.589Z,3.10
2018-04-27T15:41:53.889Z,2.63
2018-04-27T15:44:22.245Z,2.97
2018-04-27T15:46:50.550Z,3.77
2018-04-27T15:49:18.859Z,3.10
2018-04-27T15:51:47.196Z,3.93
2018-04-27T15:54:15.450Z,2.70
2018-04-27T15:56:44.484Z,2.17
2018-04-27T15:59:12.729Z,2.00
2018-04-27T16:01:42.165Z,2.30
2018-04-27T16:04:10.499Z,3.10
2018-04-27T16:06:39.594Z,2.23
2018-04-27T16:09:07.959Z,2.60
2018-04-27T16:11:36.181Z,2.60
2018-04-27T16:14:04.480Z,2.57
2018-04-27T16:16:32.771Z,2.20
2018-04-27T16:19:02.647Z,2.10
2018-04-27T16:21:30.960Z,2.17
2018-04-27T16:24:00.345Z,2.57
2018-04-27T16:26:32.484Z,2.10
2018-04-27T16:29:00.767Z,2.37
2018-04-27T16:31:29.710Z,2.50
2018-04-27T16:33:58.766Z,2.50
2018-04-27T16:36:28.574Z,2.60
2018-04-27T16:38:57.645Z,2.20
2018-04-27T16:41:26.327Z,3.27
2018-04-27T16:43:54.587Z,3.03
2018-04-27T16:46:22.919Z,2.93
2018-04-27T16:48:51.967Z,2.93
2018-04-27T16:51:20.961Z,2.17
2018-04-27T16:53:49.236Z,2.40
2018-04-27T16:56:18.337Z,2.77
2018-04-27T16:58:47.020Z,2.97
2018-04-27T17:01:17.054Z,3.50
2018-04-27T17:03:45.484Z,3.37
2018-04-27T17:06:13.666Z,3.07
2018-04-27T17:08:42.043Z,3.47
2018-04-27T17:11:10.323Z,3.37
2018-04-27T17:13:38.612Z,3.20
2018-04-27T17:16:06.881Z,3.27
2018-04-27T17:18:35.214Z,2.43
2018-04-27T17:21:03.502Z,2.53
2018-04-27T17:23:31.854Z,2.70
2018-04-27T17:26:01.163Z,2.93
2018-04-27T17:28:29.603Z,3.07
2018-04-27T17:30:57.859Z,2.97
2018-04-27T17:33:26.217Z,3.67
2018-04-27T17:35:54.636Z,2.53
2018-04-27T17:38:23.021Z,3.40
2018-04-27T17:40:51.393Z,2.37
2018-04-27T17:43:19.854Z,3.90
2018-04-27T17:45:49.283Z,7.00
2018-04-27T17:48:17.529Z,4.40
2018-04-27T17:50:45.796Z,2.77
2018-04-27T17:53:15.294Z,4.10
2018-04-27T17:55:43.791Z,3.80
2018-04-27T17:58:12.037Z,2.20
2018-04-27T18:00:40.330Z,3.30
2018-04-27T18:03:08.642Z,4.53
2018-04-27T18:05:36.924Z,2.97
2018-04-27T18:08:05.577Z,2.40
2018-04-27T18:10:34.714Z,2.30
2018-04-27T18:13:02.973Z,2.47
2018-04-27T18:15:31.260Z,2.93
2018-04-27T18:18:00.370Z,3.53
2018-04-27T18:20:28.670Z,3.47
2018-04-27T18:22:57.131Z,2.73
2018-04-27T18:25:25.373Z,3.93
2018-04-27T18:27:54.551Z,3.33
2018-04-27T18:30:23.665Z,3.73
2018-04-27T18:32:52.742Z,3.50
2018-04-27T18:35:21.035Z,4.70
2018-04-27T18:37:49.404Z,4.30
2018-04-27T18:40:18.455Z,4.07
2018-04-27T18:42:46.757Z,3.50
2018-04-27T18:45:15.015Z,2.83
2018-04-27T18:47:43.327Z,2.10
2018-04-27T18:50:11.650Z,3.43
2018-04-27T18:52:41.321Z,2.83
2018-04-27T18:55:10.379Z,3.33
2018-04-27T18:57:39.747Z,3.60
2018-04-27T19:00:08.613Z,3.47
2018-04-27T19:02:37.922Z,3.40
2018-04-27T19:05:06.978Z,4.30
2018-04-27T19:07:35.545Z,3.53
2018-04-27T19:10:03.827Z,3.37
2018-04-27T19:12:32.184Z,4.40
2018-04-27T19:15:00.541Z,3.50
2018-04-27T19:17:28.903Z,3.03
2018-04-27T19:19:58.880Z,5.17
2018-04-27T19:22:27.660Z,4.20
2018-04-27T19:24:56.996Z,10.27
2018-04-27T19:27:25.410Z,6.10
2018-04-27T19:29:53.748Z,5.13
2018-04-27T19:32:22.038Z,5.23
2018-04-27T19:34:51.182Z,6.70
2018-04-27T19:37:20.236Z,5.03
2018-04-27T19:39:48.628Z,4.20
2018-04-27T19:42:17.687Z,6.07
2018-04-27T19:44:45.994Z,4.17
2018-04-27T19:47:14.347Z,4.23
2018-04-27T19:49:42.683Z,5.50
2018-04-27T19:52:11.211Z,4.30
2018-04-27T19:54:39.588Z,4.00
2018-04-27T19:57:08.082Z,4.90
2018-04-27T19:59:36.474Z,6.77
2018-04-27T20:02:04.875Z,5.60
2018-04-27T20:04:33.217Z,5.90
2018-04-27T20:07:01.648Z,4.87
2018-04-27T20:09:30.805Z,5.30
2018-04-27T20:11:59.197Z,5.17
2018-04-27T20:14:31.288Z,6.23
2018-04-27T20:17:04.244Z,5.23
2018-04-27T20:19:34.807Z,9.67
2018-04-27T20:22:22.831Z,4.30
2018-04-27T20:24:54.407Z,5.03
2018-04-27T20:27:26.877Z,4.73
2018-04-27T20:29:55.919Z,4.90
2018-04-27T20:32:24.240Z,5.00
2018-04-27T20:34:53.338Z,4.30
2018-04-27T20:37:22.422Z,5.20
2018-04-27T20:39:50.738Z,4.80
2018-04-27T20:42:19.769Z,5.40
2018-04-27T20:44:48.213Z,7.20
2018-04-27T20:47:17.296Z,4.17
2018-04-27T20:49:45.666Z,5.87
2018-04-27T20:52:14.058Z,4.40
2018-04-27T20:54:42.651Z,5.43
2018-04-27T20:57:10.965Z,4.90
2018-04-27T20:59:39.388Z,5.00
2018-04-27T21:02:07.697Z,4.50
2018-04-27T21:04:36.025Z,5.77
2018-04-27T21:07:04.313Z,5.70
2018-04-27T21:09:33.499Z,4.80
2018-04-27T21:12:01.776Z,5.60
2018-04-27T21:14:30.072Z,5.33
2018-04-27T21:16:59.118Z,4.70
2018-04-27T21:19:27.453Z,5.27
2018-04-27T21:21:59.443Z,4.93
2018-04-27T21:24:27.830Z,4.53
2018-04-27T21:26:56.115Z,5.37
2018-04-27T21:29:27.222Z,5.00
2018-04-27T21:31:55.485Z,4.67
2018-04-27T21:34:24.533Z,4.90
2018-04-27T21:36:52.830Z,4.27
2018-04-27T21:39:21.174Z,5.47
2018-04-27T21:41:56.941Z,5.10
2018-04-27T21:44:26.094Z,5.10
2018-04-27T21:50:12.239Z,5.80
2018-04-27T21:52:44.218Z,5.50
2018-04-27T21:55:12.518Z,6.10
2018-04-27T21:57:40.813Z,5.67
2018-04-27T22:00:19.531Z,5.27
2018-04-27T22:06:06.254Z,5.10
2018-04-27T22:08:39.512Z,5.50
2018-04-27T22:11:08.709Z,7.03
2018-04-27T22:13:37.023Z,7.03
2018-04-27T22:16:05.375Z,8.53
2018-04-27T22:18:35.193Z,7.10
2018-04-27T22:21:03.502Z,8.53
2018-04-27T22:23:36.915Z,7.70
2018-04-27T22:26:12.285Z,8.97
2018-04-27T22:28:49.379Z,8.13
2018-04-27T22:31:32.880Z,8.73
2018-04-27T22:34:01.981Z,8.23
2018-04-27T22:36:30.805Z,7.23
2018-04-27T22:39:07.807Z,8.23
2018-04-27T22:41:36.330Z,6.53
2018-04-27T22:44:07.469Z,5.90
2018-04-27T22:46:39.328Z,7.70
2018-04-27T22:49:08.469Z,7.33
2018-04-27T22:51:40.178Z,5.90
2018-04-27T22:54:10.162Z,5.40
2018-04-27T22:56:54.105Z,6.10
2018-04-27T22:59:28.314Z,6.13
2018-04-27T23:01:59.943Z,5.47
2018-04-27T23:04:28.188Z,4.90
2018-04-27T23:06:56.484Z,4.93
2018-04-27T23:09:24.765Z,5.83
2018-04-27T23:11:53.041Z,5.57
2018-04-27T23:14:35.113Z,5.87
2018-04-27T23:17:07.209Z,6.13
2018-04-27T23:19:37.801Z,5.03
2018-04-27T23:22:21.844Z,5.30
2018-04-27T23:24:50.090Z,5.90
2018-04-27T23:27:19.145Z,6.63
2018-04-27T23:29:47.493Z,5.90
2018-04-27T23:32:15.788Z,4.70
2018-04-27T23:34:44.072Z,4.20
2018-04-27T23:37:12.478Z,5.97
2018-04-27T23:39:40.720Z,6.33
2018-04-27T23:42:09.026Z,6.20
2018-04-27T23:44:37.303Z,6.10
2018-04-27T23:47:05.573Z,5.97
2018-04-27T23:49:33.860Z,7.60
2018-04-27T23:52:02.178Z,5.73
2018-04-27T23:54:30.460Z,5.00
2018-04-27T23:57:02.327Z,5.30
2018-04-27T23:59:34.578Z,5.50
